sensor_id;sensor_type;location;lat;lon;timestamp;P1;durP1;ratioP1;P2;durP2;ratioP2
75417;SDS011;63997;52.112;5.420;2024-03-08T00:00:34;26.55;;;13.50;;
75417;SDS011;63997;52.112;5.420;2024-03-08T00:03:01;35.67;;;14.43;;
75417;SDS011;63997;52.112;5.420;2024-03-08T00:05:28;32.45;;;14.63;;
75417;SDS011;63997;52.112;5.420;2024-03-08T00:07:55;33.27;;;12.43;;
75417;SDS011;63997;52.112;5.420;2024-03-08T00:10:22;27.92;;;12.18;;
75417;SDS011;63997;52.112;5.420;2024-03-08T00:12:53;29.63;;;12.18;;
75417;SDS011;63997;52.112;5.420;2024-03-08T00:15:19;29.92;;;12.77;;
75417;SDS011;63997;52.112;5.420;2024-03-08T00:17:46;28.50;;;11.73;;
75417;SDS011;63997;52.112;5.420;2024-03-08T00:20:14;25.93;;;12.07;;
75417;SDS011;63997;52.112;5.420;2024-03-08T00:22:45;27.73;;;12.43;;
75417;SDS011;63997;52.112;5.420;2024-03-08T00:25:13;26.42;;;13.40;;
75417;SDS011;63997;52.112;5.420;2024-03-08T00:27:40;30.25;;;13.55;;
75417;SDS011;63997;52.112;5.420;2024-03-08T00:30:07;25.50;;;11.88;;
75417;SDS011;63997;52.112;5.420;2024-03-08T00:32:34;27.70;;;12.43;;
75417;SDS011;63997;52.112;5.420;2024-03-08T00:35:02;30.75;;;13.52;;
75417;SDS011;63997;52.112;5.420;2024-03-08T00:37:29;30.73;;;12.15;;
75417;SDS011;63997;52.112;5.420;2024-03-08T00:39:56;26.75;;;12.35;;
75417;SDS011;63997;52.112;5.420;2024-03-08T00:42:22;27.23;;;12.65;;
75417;SDS011;63997;52.112;5.420;2024-03-08T00:44:50;27.63;;;12.63;;
75417;SDS011;63997;52.112;5.420;2024-03-08T00:47:17;34.50;;;12.82;;
75417;SDS011;63997;52.112;5.420;2024-03-08T00:49:45;27.27;;;12.15;;
75417;SDS011;63997;52.112;5.420;2024-03-08T00:52:13;34.63;;;12.95;;
75417;SDS011;63997;52.112;5.420;2024-03-08T00:54:39;28.45;;;12.30;;
75417;SDS011;63997;52.112;5.420;2024-03-08T00:57:06;27.03;;;12.63;;
75417;SDS011;63997;52.112;5.420;2024-03-08T00:59:33;26.58;;;12.77;;
75417;SDS011;63997;52.112;5.420;2024-03-08T01:02:00;28.95;;;12.95;;
75417;SDS011;63997;52.112;5.420;2024-03-08T01:04:28;27.40;;;13.07;;
75417;SDS011;63997;52.112;5.420;2024-03-08T01:06:58;27.20;;;12.52;;
75417;SDS011;63997;52.112;5.420;2024-03-08T01:09:26;31.47;;;12.20;;
75417;SDS011;63997;52.112;5.420;2024-03-08T01:11:56;30.10;;;13.75;;
75417;SDS011;63997;52.112;5.420;2024-03-08T01:14:23;27.80;;;13.00;;
75417;SDS011;63997;52.112;5.420;2024-03-08T01:16:52;26.02;;;13.55;;
75417;SDS011;63997;52.112;5.420;2024-03-08T01:19:19;32.25;;;12.82;;
75417;SDS011;63997;52.112;5.420;2024-03-08T01:21:45;29.27;;;13.23;;
75417;SDS011;63997;52.112;5.420;2024-03-08T01:24:12;24.80;;;12.38;;
75417;SDS011;63997;52.112;5.420;2024-03-08T01:26:39;27.90;;;12.13;;
75417;SDS011;63997;52.112;5.420;2024-03-08T01:29:06;32.13;;;12.63;;
75417;SDS011;63997;52.112;5.420;2024-03-08T01:31:33;29.27;;;13.07;;
75417;SDS011;63997;52.112;5.420;2024-03-08T01:33:59;29.47;;;13.53;;
75417;SDS011;63997;52.112;5.420;2024-03-08T01:36:26;28.60;;;13.07;;
75417;SDS011;63997;52.112;5.420;2024-03-08T01:38:53;28.88;;;12.15;;
75417;SDS011;63997;52.112;5.420;2024-03-08T01:41:19;28.63;;;12.70;;
75417;SDS011;63997;52.112;5.420;2024-03-08T01:43:46;24.63;;;13.05;;
75417;SDS011;63997;52.112;5.420;2024-03-08T01:46:14;26.13;;;12.93;;
75417;SDS011;63997;52.112;5.420;2024-03-08T01:48:43;31.40;;;14.23;;
75417;SDS011;63997;52.112;5.420;2024-03-08T01:51:11;27.00;;;12.50;;
75417;SDS011;63997;52.112;5.420;2024-03-08T01:53:42;31.27;;;14.20;;
75417;SDS011;63997;52.112;5.420;2024-03-08T01:56:12;27.42;;;12.00;;
75417;SDS011;63997;52.112;5.420;2024-03-08T01:58:43;26.53;;;12.53;;
75417;SDS011;63997;52.112;5.420;2024-03-08T02:01:13;29.45;;;12.70;;
75417;SDS011;63997;52.112;5.420;2024-03-08T02:03:43;28.13;;;13.27;;
75417;SDS011;63997;52.112;5.420;2024-03-08T02:06:11;25.23;;;13.18;;
75417;SDS011;63997;52.112;5.420;2024-03-08T02:08:41;25.88;;;12.25;;
75417;SDS011;63997;52.112;5.420;2024-03-08T02:11:10;25.23;;;12.23;;
75417;SDS011;63997;52.112;5.420;2024-03-08T02:13:36;28.75;;;13.88;;
75417;SDS011;63997;52.112;5.420;2024-03-08T02:16:03;27.05;;;12.60;;
75417;SDS011;63997;52.112;5.420;2024-03-08T02:18:30;29.17;;;12.48;;
75417;SDS011;63997;52.112;5.420;2024-03-08T02:20:59;29.92;;;12.48;;
75417;SDS011;63997;52.112;5.420;2024-03-08T02:23:26;26.27;;;12.70;;
75417;SDS011;63997;52.112;5.420;2024-03-08T02:25:53;25.20;;;13.25;;
75417;SDS011;63997;52.112;5.420;2024-03-08T02:28:22;26.65;;;13.07;;
75417;SDS011;63997;52.112;5.420;2024-03-08T02:30:51;26.80;;;13.25;;
75417;SDS011;63997;52.112;5.420;2024-03-08T02:33:22;28.83;;;13.07;;
75417;SDS011;63997;52.112;5.420;2024-03-08T02:35:50;27.57;;;12.67;;
75417;SDS011;63997;52.112;5.420;2024-03-08T02:38:18;27.95;;;13.43;;
75417;SDS011;63997;52.112;5.420;2024-03-08T02:40:47;27.80;;;13.75;;
75417;SDS011;63997;52.112;5.420;2024-03-08T02:43:15;26.50;;;13.27;;
75417;SDS011;63997;52.112;5.420;2024-03-08T02:45:44;33.78;;;13.57;;
75417;SDS011;63997;52.112;5.420;2024-03-08T02:48:12;27.10;;;12.53;;
75417;SDS011;63997;52.112;5.420;2024-03-08T02:50:40;25.02;;;12.48;;
75417;SDS011;63997;52.112;5.420;2024-03-08T02:53:08;24.90;;;12.63;;
75417;SDS011;63997;52.112;5.420;2024-03-08T02:55:36;24.77;;;13.02;;
75417;SDS011;63997;52.112;5.420;2024-03-08T02:58:03;26.00;;;13.48;;
75417;SDS011;63997;52.112;5.420;2024-03-08T03:00:31;29.87;;;13.47;;
75417;SDS011;63997;52.112;5.420;2024-03-08T03:02:58;28.02;;;12.27;;
75417;SDS011;63997;52.112;5.420;2024-03-08T03:05:25;25.50;;;12.90;;
75417;SDS011;63997;52.112;5.420;2024-03-08T03:07:52;28.13;;;12.63;;
75417;SDS011;63997;52.112;5.420;2024-03-08T03:10:18;28.35;;;13.68;;
75417;SDS011;63997;52.112;5.420;2024-03-08T03:12:48;27.40;;;12.40;;
75417;SDS011;63997;52.112;5.420;2024-03-08T03:15:15;28.48;;;13.40;;
75417;SDS011;63997;52.112;5.420;2024-03-08T03:17:45;27.70;;;12.48;;
75417;SDS011;63997;52.112;5.420;2024-03-08T03:20:13;28.90;;;13.90;;
75417;SDS011;63997;52.112;5.420;2024-03-08T03:22:41;31.27;;;12.93;;
75417;SDS011;63997;52.112;5.420;2024-03-08T03:25:08;24.08;;;13.48;;
75417;SDS011;63997;52.112;5.420;2024-03-08T03:27:35;33.60;;;13.82;;
75417;SDS011;63997;52.112;5.420;2024-03-08T03:30:03;26.37;;;12.53;;
75417;SDS011;63997;52.112;5.420;2024-03-08T03:32:48;30.45;;;13.05;;
75417;SDS011;63997;52.112;5.420;2024-03-08T03:35:19;29.10;;;14.32;;
75417;SDS011;63997;52.112;5.420;2024-03-08T03:37:47;23.23;;;12.27;;
75417;SDS011;63997;52.112;5.420;2024-03-08T03:40:38;26.25;;;13.30;;
75417;SDS011;63997;52.112;5.420;2024-03-08T03:43:07;29.97;;;13.13;;
75417;SDS011;63997;52.112;5.420;2024-03-08T03:45:34;27.05;;;14.20;;
75417;SDS011;63997;52.112;5.420;2024-03-08T03:48:03;33.70;;;14.55;;
75417;SDS011;63997;52.112;5.420;2024-03-08T03:50:31;29.10;;;13.70;;
75417;SDS011;63997;52.112;5.420;2024-03-08T03:53:01;26.85;;;14.05;;
75417;SDS011;63997;52.112;5.420;2024-03-08T03:55:29;24.07;;;14.20;;
75417;SDS011;63997;52.112;5.420;2024-03-08T03:57:56;29.02;;;15.23;;
75417;SDS011;63997;52.112;5.420;2024-03-08T04:00:24;28.08;;;13.93;;
75417;SDS011;63997;52.112;5.420;2024-03-08T04:02:53;29.27;;;13.90;;
75417;SDS011;63997;52.112;5.420;2024-03-08T04:05:21;29.73;;;13.68;;
75417;SDS011;63997;52.112;5.420;2024-03-08T04:07:47;28.13;;;14.80;;
75417;SDS011;63997;52.112;5.420;2024-03-08T04:10:14;26.67;;;13.35;;
75417;SDS011;63997;52.112;5.420;2024-03-08T04:12:41;27.13;;;13.38;;
75417;SDS011;63997;52.112;5.420;2024-03-08T04:15:07;27.92;;;13.52;;
75417;SDS011;63997;52.112;5.420;2024-03-08T04:17:34;32.55;;;15.15;;
75417;SDS011;63997;52.112;5.420;2024-03-08T04:20:03;31.93;;;14.33;;
75417;SDS011;63997;52.112;5.420;2024-03-08T04:22:38;26.38;;;13.60;;
75417;SDS011;63997;52.112;5.420;2024-03-08T04:25:08;28.30;;;14.55;;
75417;SDS011;63997;52.112;5.420;2024-03-08T04:27:35;27.02;;;13.43;;
75417;SDS011;63997;52.112;5.420;2024-03-08T04:30:02;25.17;;;12.77;;
75417;SDS011;63997;52.112;5.420;2024-03-08T04:32:29;29.93;;;14.83;;
75417;SDS011;63997;52.112;5.420;2024-03-08T04:34:58;24.27;;;14.27;;
75417;SDS011;63997;52.112;5.420;2024-03-08T04:37:27;27.67;;;13.77;;
75417;SDS011;63997;52.112;5.420;2024-03-08T04:39:56;28.65;;;12.93;;
75417;SDS011;63997;52.112;5.420;2024-03-08T04:42:22;25.95;;;14.25;;
75417;SDS011;63997;52.112;5.420;2024-03-08T04:44:50;27.67;;;14.57;;
75417;SDS011;63997;52.112;5.420;2024-03-08T04:47:17;28.08;;;14.32;;
75417;SDS011;63997;52.112;5.420;2024-03-08T04:49:44;28.25;;;14.20;;
75417;SDS011;63997;52.112;5.420;2024-03-08T04:52:10;28.80;;;15.18;;
75417;SDS011;63997;52.112;5.420;2024-03-08T04:54:38;24.42;;;14.05;;
75417;SDS011;63997;52.112;5.420;2024-03-08T04:57:05;26.13;;;13.53;;
75417;SDS011;63997;52.112;5.420;2024-03-08T04:59:34;27.15;;;13.05;;
75417;SDS011;63997;52.112;5.420;2024-03-08T05:02:02;30.08;;;14.65;;
75417;SDS011;63997;52.112;5.420;2024-03-08T05:04:30;30.40;;;14.73;;
75417;SDS011;63997;52.112;5.420;2024-03-08T05:06:56;29.02;;;14.50;;
75417;SDS011;63997;52.112;5.420;2024-03-08T05:09:23;29.43;;;13.87;;
75417;SDS011;63997;52.112;5.420;2024-03-08T05:11:50;27.63;;;14.18;;
75417;SDS011;63997;52.112;5.420;2024-03-08T05:14:16;25.90;;;13.07;;
75417;SDS011;63997;52.112;5.420;2024-03-08T05:16:44;26.13;;;14.15;;
75417;SDS011;63997;52.112;5.420;2024-03-08T05:19:16;26.17;;;14.93;;
75417;SDS011;63997;52.112;5.420;2024-03-08T05:21:47;26.83;;;13.60;;
75417;SDS011;63997;52.112;5.420;2024-03-08T05:24:15;28.88;;;13.85;;
75417;SDS011;63997;52.112;5.420;2024-03-08T05:26:43;28.42;;;14.35;;
75417;SDS011;63997;52.112;5.420;2024-03-08T05:29:10;33.00;;;14.13;;
75417;SDS011;63997;52.112;5.420;2024-03-08T05:31:47;28.35;;;14.63;;
75417;SDS011;63997;52.112;5.420;2024-03-08T05:34:16;26.10;;;14.30;;
75417;SDS011;63997;52.112;5.420;2024-03-08T05:36:43;30.92;;;14.15;;
75417;SDS011;63997;52.112;5.420;2024-03-08T05:39:11;26.83;;;14.02;;
75417;SDS011;63997;52.112;5.420;2024-03-08T05:41:41;26.33;;;14.10;;
75417;SDS011;63997;52.112;5.420;2024-03-08T05:44:08;29.70;;;15.00;;
75417;SDS011;63997;52.112;5.420;2024-03-08T05:46:35;24.87;;;13.77;;
75417;SDS011;63997;52.112;5.420;2024-03-08T05:49:03;31.30;;;15.27;;
75417;SDS011;63997;52.112;5.420;2024-03-08T05:51:32;26.00;;;14.13;;
75417;SDS011;63997;52.112;5.420;2024-03-08T05:56:29;28.50;;;14.38;;
75417;SDS011;63997;52.112;5.420;2024-03-08T05:58:56;30.83;;;14.10;;
75417;SDS011;63997;52.112;5.420;2024-03-08T06:01:24;27.63;;;14.30;;
75417;SDS011;63997;52.112;5.420;2024-03-08T06:03:52;29.10;;;15.02;;
75417;SDS011;63997;52.112;5.420;2024-03-08T06:06:22;29.45;;;15.57;;
75417;SDS011;63997;52.112;5.420;2024-03-08T06:08:49;29.10;;;15.20;;
75417;SDS011;63997;52.112;5.420;2024-03-08T06:11:16;26.77;;;14.27;;
75417;SDS011;63997;52.112;5.420;2024-03-08T06:13:44;30.15;;;14.50;;
75417;SDS011;63997;52.112;5.420;2024-03-08T06:16:11;31.17;;;15.18;;
75417;SDS011;63997;52.112;5.420;2024-03-08T06:18:38;25.40;;;14.57;;
75417;SDS011;63997;52.112;5.420;2024-03-08T06:21:06;31.10;;;15.35;;
75417;SDS011;63997;52.112;5.420;2024-03-08T06:23:35;30.97;;;14.33;;
75417;SDS011;63997;52.112;5.420;2024-03-08T06:26:05;27.38;;;14.05;;
75417;SDS011;63997;52.112;5.420;2024-03-08T06:28:31;30.10;;;13.75;;
75417;SDS011;63997;52.112;5.420;2024-03-08T06:30:59;28.40;;;15.27;;
75417;SDS011;63997;52.112;5.420;2024-03-08T06:33:25;30.48;;;15.02;;
75417;SDS011;63997;52.112;5.420;2024-03-08T06:35:53;36.43;;;15.70;;
75417;SDS011;63997;52.112;5.420;2024-03-08T06:38:23;31.23;;;14.95;;
75417;SDS011;63997;52.112;5.420;2024-03-08T06:40:51;33.95;;;15.90;;
75417;SDS011;63997;52.112;5.420;2024-03-08T06:43:18;30.38;;;15.68;;
75417;SDS011;63997;52.112;5.420;2024-03-08T06:45:45;29.55;;;16.08;;
75417;SDS011;63997;52.112;5.420;2024-03-08T06:48:15;29.30;;;13.93;;
75417;SDS011;63997;52.112;5.420;2024-03-08T06:50:45;28.35;;;15.10;;
75417;SDS011;63997;52.112;5.420;2024-03-08T06:53:13;29.05;;;15.00;;
75417;SDS011;63997;52.112;5.420;2024-03-08T06:55:40;27.85;;;14.85;;
75417;SDS011;63997;52.112;5.420;2024-03-08T06:58:06;29.52;;;15.50;;
75417;SDS011;63997;52.112;5.420;2024-03-08T07:00:33;29.30;;;15.57;;
75417;SDS011;63997;52.112;5.420;2024-03-08T07:03:00;24.77;;;14.52;;
75417;SDS011;63997;52.112;5.420;2024-03-08T07:05:30;27.40;;;13.73;;
75417;SDS011;63997;52.112;5.420;2024-03-08T07:07:57;27.10;;;14.15;;
75417;SDS011;63997;52.112;5.420;2024-03-08T07:10:24;28.75;;;14.73;;
75417;SDS011;63997;52.112;5.420;2024-03-08T07:12:51;28.87;;;14.17;;
75417;SDS011;63997;52.112;5.420;2024-03-08T07:15:19;31.30;;;15.60;;
75417;SDS011;63997;52.112;5.420;2024-03-08T07:17:46;25.92;;;14.27;;
75417;SDS011;63997;52.112;5.420;2024-03-08T07:20:13;30.05;;;15.18;;
75417;SDS011;63997;52.112;5.420;2024-03-08T07:22:45;24.38;;;14.20;;
75417;SDS011;63997;52.112;5.420;2024-03-08T07:25:19;26.53;;;14.37;;
75417;SDS011;63997;52.112;5.420;2024-03-08T07:27:56;28.40;;;15.18;;
75417;SDS011;63997;52.112;5.420;2024-03-08T07:30:23;26.80;;;14.60;;
75417;SDS011;63997;52.112;5.420;2024-03-08T07:33:09;29.45;;;15.00;;
75417;SDS011;63997;52.112;5.420;2024-03-08T07:35:40;26.98;;;14.50;;
75417;SDS011;63997;52.112;5.420;2024-03-08T07:38:08;29.23;;;14.93;;
75417;SDS011;63997;52.112;5.420;2024-03-08T07:40:37;28.25;;;14.55;;
75417;SDS011;63997;52.112;5.420;2024-03-08T07:43:10;31.25;;;15.70;;
75417;SDS011;63997;52.112;5.420;2024-03-08T07:45:38;26.70;;;14.98;;
75417;SDS011;63997;52.112;5.420;2024-03-08T07:48:05;25.98;;;14.90;;
75417;SDS011;63997;52.112;5.420;2024-03-08T07:50:39;27.90;;;14.80;;
75417;SDS011;63997;52.112;5.420;2024-03-08T07:53:08;25.65;;;14.60;;
75417;SDS011;63997;52.112;5.420;2024-03-08T07:55:35;26.45;;;15.23;;
75417;SDS011;63997;52.112;5.420;2024-03-08T07:58:02;28.55;;;16.65;;
75417;SDS011;63997;52.112;5.420;2024-03-08T08:00:29;24.60;;;14.40;;
75417;SDS011;63997;52.112;5.420;2024-03-08T08:02:58;24.57;;;14.40;;
75417;SDS011;63997;52.112;5.420;2024-03-08T08:05:25;27.58;;;14.73;;
75417;SDS011;63997;52.112;5.420;2024-03-08T08:07:52;28.13;;;15.73;;
75417;SDS011;63997;52.112;5.420;2024-03-08T08:10:19;30.25;;;15.15;;
75417;SDS011;63997;52.112;5.420;2024-03-08T08:12:52;28.15;;;15.75;;
75417;SDS011;63997;52.112;5.420;2024-03-08T08:15:19;25.77;;;14.93;;
75417;SDS011;63997;52.112;5.420;2024-03-08T08:17:46;27.77;;;15.05;;
75417;SDS011;63997;52.112;5.420;2024-03-08T08:20:18;26.85;;;14.45;;
75417;SDS011;63997;52.112;5.420;2024-03-08T08:22:45;25.77;;;14.13;;
75417;SDS011;63997;52.112;5.420;2024-03-08T08:25:12;30.08;;;15.93;;
75417;SDS011;63997;52.112;5.420;2024-03-08T08:27:39;35.37;;;15.30;;
75417;SDS011;63997;52.112;5.420;2024-03-08T08:30:06;25.48;;;14.63;;
75417;SDS011;63997;52.112;5.420;2024-03-08T08:32:34;33.08;;;17.60;;
75417;SDS011;63997;52.112;5.420;2024-03-08T08:35:03;26.15;;;14.65;;
75417;SDS011;63997;52.112;5.420;2024-03-08T08:37:31;31.77;;;15.50;;
75417;SDS011;63997;52.112;5.420;2024-03-08T08:39:58;29.20;;;15.50;;
75417;SDS011;63997;52.112;5.420;2024-03-08T08:42:31;26.92;;;15.57;;
75417;SDS011;63997;52.112;5.420;2024-03-08T08:44:58;30.60;;;15.43;;
75417;SDS011;63997;52.112;5.420;2024-03-08T08:47:34;32.10;;;15.13;;
75417;SDS011;63997;52.112;5.420;2024-03-08T08:50:02;23.40;;;14.25;;
75417;SDS011;63997;52.112;5.420;2024-03-08T08:52:31;27.00;;;13.70;;
75417;SDS011;63997;52.112;5.420;2024-03-08T08:54:58;26.75;;;14.80;;
75417;SDS011;63997;52.112;5.420;2024-03-08T08:57:25;25.75;;;15.55;;
75417;SDS011;63997;52.112;5.420;2024-03-08T08:59:53;30.05;;;14.98;;
75417;SDS011;63997;52.112;5.420;2024-03-08T09:02:19;25.15;;;14.70;;
75417;SDS011;63997;52.112;5.420;2024-03-08T09:04:47;26.43;;;15.10;;
75417;SDS011;63997;52.112;5.420;2024-03-08T09:07:17;27.42;;;14.95;;
75417;SDS011;63997;52.112;5.420;2024-03-08T09:09:45;28.52;;;14.32;;
75417;SDS011;63997;52.112;5.420;2024-03-08T09:12:11;27.35;;;14.55;;
75417;SDS011;63997;52.112;5.420;2024-03-08T09:14:40;24.83;;;14.80;;
75417;SDS011;63997;52.112;5.420;2024-03-08T09:17:07;27.03;;;14.60;;
75417;SDS011;63997;52.112;5.420;2024-03-08T09:19:37;25.08;;;14.55;;
75417;SDS011;63997;52.112;5.420;2024-03-08T09:22:04;26.88;;;14.98;;
75417;SDS011;63997;52.112;5.420;2024-03-08T09:24:31;32.08;;;15.88;;
75417;SDS011;63997;52.112;5.420;2024-03-08T09:26:57;24.50;;;15.25;;
75417;SDS011;63997;52.112;5.420;2024-03-08T09:29:27;28.67;;;14.37;;
75417;SDS011;63997;52.112;5.420;2024-03-08T09:31:54;26.25;;;14.48;;
75417;SDS011;63997;52.112;5.420;2024-03-08T09:34:21;31.90;;;14.80;;
75417;SDS011;63997;52.112;5.420;2024-03-08T09:36:57;30.33;;;16.10;;
75417;SDS011;63997;52.112;5.420;2024-03-08T09:39:24;25.17;;;14.75;;
75417;SDS011;63997;52.112;5.420;2024-03-08T09:41:52;24.67;;;14.40;;
75417;SDS011;63997;52.112;5.420;2024-03-08T09:44:22;25.70;;;14.40;;
75417;SDS011;63997;52.112;5.420;2024-03-08T09:46:53;23.77;;;14.07;;
75417;SDS011;63997;52.112;5.420;2024-03-08T09:49:20;30.08;;;15.52;;
75417;SDS011;63997;52.112;5.420;2024-03-08T09:51:46;25.42;;;15.15;;
75417;SDS011;63997;52.112;5.420;2024-03-08T09:54:15;26.10;;;14.10;;
75417;SDS011;63997;52.112;5.420;2024-03-08T09:56:48;23.50;;;14.13;;
75417;SDS011;63997;52.112;5.420;2024-03-08T09:59:17;24.73;;;14.10;;
75417;SDS011;63997;52.112;5.420;2024-03-08T10:01:53;23.85;;;13.70;;
75417;SDS011;63997;52.112;5.420;2024-03-08T10:04:22;27.55;;;14.38;;
75417;SDS011;63997;52.112;5.420;2024-03-08T10:06:49;26.13;;;14.53;;
75417;SDS011;63997;52.112;5.420;2024-03-08T10:09:15;25.50;;;14.05;;
75417;SDS011;63997;52.112;5.420;2024-03-08T10:11:43;26.63;;;12.60;;
75417;SDS011;63997;52.112;5.420;2024-03-08T10:14:09;23.77;;;13.98;;
75417;SDS011;63997;52.112;5.420;2024-03-08T10:16:40;23.23;;;13.25;;
75417;SDS011;63997;52.112;5.420;2024-03-08T10:19:06;27.77;;;14.07;;
75417;SDS011;63997;52.112;5.420;2024-03-08T10:21:34;20.73;;;12.45;;
75417;SDS011;63997;52.112;5.420;2024-03-08T10:24:02;24.55;;;13.65;;
75417;SDS011;63997;52.112;5.420;2024-03-08T10:26:29;20.50;;;12.60;;
75417;SDS011;63997;52.112;5.420;2024-03-08T10:28:57;24.52;;;13.40;;
75417;SDS011;63997;52.112;5.420;2024-03-08T10:31:24;18.80;;;11.77;;
75417;SDS011;63997;52.112;5.420;2024-03-08T10:33:50;21.40;;;13.02;;
75417;SDS011;63997;52.112;5.420;2024-03-08T10:36:17;21.83;;;12.40;;
75417;SDS011;63997;52.112;5.420;2024-03-08T10:38:45;22.35;;;12.18;;
75417;SDS011;63997;52.112;5.420;2024-03-08T10:41:15;23.35;;;12.43;;
75417;SDS011;63997;52.112;5.420;2024-03-08T10:46:42;24.25;;;12.57;;
75417;SDS011;63997;52.112;5.420;2024-03-08T10:49:16;24.08;;;13.43;;
75417;SDS011;63997;52.112;5.420;2024-03-08T10:51:44;24.20;;;12.70;;
75417;SDS011;63997;52.112;5.420;2024-03-08T10:54:12;19.98;;;12.20;;
75417;SDS011;63997;52.112;5.420;2024-03-08T10:56:41;22.77;;;12.10;;
75417;SDS011;63997;52.112;5.420;2024-03-08T10:59:08;20.30;;;11.98;;
75417;SDS011;63997;52.112;5.420;2024-03-08T11:01:35;18.90;;;12.02;;
75417;SDS011;63997;52.112;5.420;2024-03-08T11:04:06;23.48;;;12.60;;
75417;SDS011;63997;52.112;5.420;2024-03-08T11:09:08;20.23;;;12.17;;
75417;SDS011;63997;52.112;5.420;2024-03-08T11:12:16;19.80;;;10.65;;
75417;SDS011;63997;52.112;5.420;2024-03-08T11:14:59;20.98;;;13.20;;
75417;SDS011;63997;52.112;5.420;2024-03-08T11:19:58;20.38;;;12.70;;
75417;SDS011;63997;52.112;5.420;2024-03-08T11:22:32;19.13;;;12.03;;
75417;SDS011;63997;52.112;5.420;2024-03-08T11:25:03;19.85;;;12.13;;
75417;SDS011;63997;52.112;5.420;2024-03-08T11:27:36;23.95;;;13.15;;
75417;SDS011;63997;52.112;5.420;2024-03-08T11:30:06;18.23;;;11.73;;
75417;SDS011;63997;52.112;5.420;2024-03-08T11:32:47;23.73;;;14.10;;
75417;SDS011;63997;52.112;5.420;2024-03-08T11:35:20;24.20;;;12.20;;
75417;SDS011;63997;52.112;5.420;2024-03-08T11:37:49;21.75;;;11.10;;
75417;SDS011;63997;52.112;5.420;2024-03-08T11:40:17;17.60;;;11.48;;
75417;SDS011;63997;52.112;5.420;2024-03-08T11:42:45;18.13;;;10.63;;
75417;SDS011;63997;52.112;5.420;2024-03-08T11:45:16;19.23;;;10.43;;
75417;SDS011;63997;52.112;5.420;2024-03-08T11:47:44;16.90;;;10.70;;
75417;SDS011;63997;52.112;5.420;2024-03-08T11:50:13;17.65;;;9.75;;
75417;SDS011;63997;52.112;5.420;2024-03-08T11:52:40;15.27;;;10.27;;
75417;SDS011;63997;52.112;5.420;2024-03-08T11:55:07;15.90;;;9.18;;
75417;SDS011;63997;52.112;5.420;2024-03-08T11:57:34;16.50;;;8.63;;
75417;SDS011;63997;52.112;5.420;2024-03-08T12:00:02;19.57;;;9.13;;
75417;SDS011;63997;52.112;5.420;2024-03-08T12:02:35;15.30;;;9.20;;
75417;SDS011;63997;52.112;5.420;2024-03-08T12:05:04;14.55;;;8.85;;
75417;SDS011;63997;52.112;5.420;2024-03-08T12:07:36;15.18;;;9.55;;
75417;SDS011;63997;52.112;5.420;2024-03-08T12:10:15;16.83;;;9.90;;
75417;SDS011;63997;52.112;5.420;2024-03-08T12:12:45;16.17;;;9.30;;
75417;SDS011;63997;52.112;5.420;2024-03-08T12:15:17;15.77;;;10.13;;
75417;SDS011;63997;52.112;5.420;2024-03-08T12:17:48;15.63;;;9.15;;
75417;SDS011;63997;52.112;5.420;2024-03-08T12:20:18;14.25;;;9.35;;
75417;SDS011;63997;52.112;5.420;2024-03-08T12:22:48;18.42;;;9.75;;
75417;SDS011;63997;52.112;5.420;2024-03-08T12:25:15;15.47;;;9.77;;
75417;SDS011;63997;52.112;5.420;2024-03-08T12:27:42;19.90;;;10.02;;
75417;SDS011;63997;52.112;5.420;2024-03-08T12:32:54;16.88;;;10.18;;
75417;SDS011;63997;52.112;5.420;2024-03-08T12:35:28;17.25;;;10.38;;
75417;SDS011;63997;52.112;5.420;2024-03-08T12:37:56;16.30;;;9.23;;
75417;SDS011;63997;52.112;5.420;2024-03-08T12:40:30;17.98;;;10.02;;
75417;SDS011;63997;52.112;5.420;2024-03-08T12:42:58;15.65;;;9.85;;
75417;SDS011;63997;52.112;5.420;2024-03-08T12:45:25;16.88;;;9.93;;
75417;SDS011;63997;52.112;5.420;2024-03-08T12:47:52;18.80;;;9.95;;
75417;SDS011;63997;52.112;5.420;2024-03-08T12:50:23;14.77;;;9.07;;
75417;SDS011;63997;52.112;5.420;2024-03-08T12:52:52;16.55;;;10.43;;
75417;SDS011;63997;52.112;5.420;2024-03-08T12:55:19;19.50;;;10.82;;
75417;SDS011;63997;52.112;5.420;2024-03-08T12:57:46;16.23;;;10.20;;
75417;SDS011;63997;52.112;5.420;2024-03-08T13:00:15;16.27;;;9.63;;
75417;SDS011;63997;52.112;5.420;2024-03-08T13:02:49;17.23;;;10.60;;
75417;SDS011;63997;52.112;5.420;2024-03-08T13:05:18;17.65;;;10.93;;
75417;SDS011;63997;52.112;5.420;2024-03-08T13:07:46;15.75;;;9.93;;
75417;SDS011;63997;52.112;5.420;2024-03-08T13:10:13;17.08;;;9.95;;
75417;SDS011;63997;52.112;5.420;2024-03-08T13:12:41;19.95;;;10.50;;
75417;SDS011;63997;52.112;5.420;2024-03-08T13:15:09;18.90;;;10.40;;
75417;SDS011;63997;52.112;5.420;2024-03-08T13:17:49;18.25;;;11.02;;
75417;SDS011;63997;52.112;5.420;2024-03-08T13:20:16;18.58;;;10.50;;
75417;SDS011;63997;52.112;5.420;2024-03-08T13:22:56;17.60;;;10.70;;
75417;SDS011;63997;52.112;5.420;2024-03-08T13:25:23;19.60;;;11.00;;
75417;SDS011;63997;52.112;5.420;2024-03-08T13:27:50;19.90;;;10.30;;
75417;SDS011;63997;52.112;5.420;2024-03-08T13:30:17;17.75;;;10.43;;
75417;SDS011;63997;52.112;5.420;2024-03-08T13:32:44;17.33;;;10.80;;
75417;SDS011;63997;52.112;5.420;2024-03-08T13:35:11;17.08;;;9.98;;
75417;SDS011;63997;52.112;5.420;2024-03-08T13:37:41;18.15;;;10.88;;
75417;SDS011;63997;52.112;5.420;2024-03-08T13:40:09;15.60;;;9.67;;
75417;SDS011;63997;52.112;5.420;2024-03-08T13:42:40;18.85;;;11.13;;
75417;SDS011;63997;52.112;5.420;2024-03-08T13:45:10;17.42;;;10.52;;
75417;SDS011;63997;52.112;5.420;2024-03-08T13:47:38;19.17;;;9.95;;
75417;SDS011;63997;52.112;5.420;2024-03-08T13:50:08;19.50;;;11.52;;
75417;SDS011;63997;52.112;5.420;2024-03-08T13:52:39;19.20;;;10.90;;
75417;SDS011;63997;52.112;5.420;2024-03-08T13:55:06;19.42;;;10.93;;
75417;SDS011;63997;52.112;5.420;2024-03-08T13:57:33;16.38;;;10.15;;
75417;SDS011;63997;52.112;5.420;2024-03-08T14:00:00;16.08;;;9.82;;
75417;SDS011;63997;52.112;5.420;2024-03-08T14:02:26;17.73;;;10.98;;
75417;SDS011;63997;52.112;5.420;2024-03-08T14:04:54;17.60;;;10.00;;
75417;SDS011;63997;52.112;5.420;2024-03-08T14:07:21;19.25;;;10.80;;
75417;SDS011;63997;52.112;5.420;2024-03-08T14:09:49;16.60;;;10.23;;
75417;SDS011;63997;52.112;5.420;2024-03-08T14:12:16;18.35;;;10.68;;
75417;SDS011;63997;52.112;5.420;2024-03-08T14:14:42;23.15;;;11.95;;
75417;SDS011;63997;52.112;5.420;2024-03-08T14:17:11;19.23;;;11.73;;
75417;SDS011;63997;52.112;5.420;2024-03-08T14:19:43;18.15;;;11.43;;
75417;SDS011;63997;52.112;5.420;2024-03-08T14:22:09;18.58;;;10.07;;
75417;SDS011;63997;52.112;5.420;2024-03-08T14:24:41;18.25;;;10.95;;
75417;SDS011;63997;52.112;5.420;2024-03-08T14:27:08;17.77;;;11.55;;
75417;SDS011;63997;52.112;5.420;2024-03-08T14:29:36;16.43;;;10.37;;
75417;SDS011;63997;52.112;5.420;2024-03-08T14:32:02;19.33;;;11.48;;
75417;SDS011;63997;52.112;5.420;2024-03-08T14:34:32;16.88;;;10.40;;
75417;SDS011;63997;52.112;5.420;2024-03-08T14:37:00;21.33;;;11.70;;
75417;SDS011;63997;52.112;5.420;2024-03-08T14:39:31;19.23;;;10.93;;
75417;SDS011;63997;52.112;5.420;2024-03-08T14:41:59;19.53;;;10.83;;
75417;SDS011;63997;52.112;5.420;2024-03-08T14:44:26;18.45;;;11.77;;